Time;durP1;ratioP1;P1;durP2;ratioP2;P2;SDS_P1;SDS_P2;PMS_P1;PMS_P2;Temp;Humidity;BMP_temperature;BMP_pressure;BME280_temperature;BME280_humidity;BME280_pressure;Samples;Min_cycle;Max_cycle;Signal;HPM_P1;HPM_P2
2021/11/15 00:00:13;;;;;;;112.23;52.87;;;;;;;;;;764232;181;919312;-64
2021/11/15 00:02:40;;;;;;;127.87;59.87;;;;;;;;;;768199;181;919885;-64
2021/11/15 00:05:05;;;;;;;116.23;55.40;;;;;;;;;;766543;181;917640;-62
2021/11/15 00:07:31;;;;;;;122.93;56.90;;;;;;;;;;749579;183;919495;-64
2021/11/15 00:09:57;;;;;;;106.68;53.75;;;;;;;;;;750850;183;918941;-63
2021/11/15 00:12:23;;;;;;;107.80;53.40;;;;;;;;;;741235;187;919204;-63
2021/11/15 00:14:49;;;;;;;105.40;53.07;;;;;;;;;;753135;183;920163;-63
2021/11/15 00:17:14;;;;;;;117.57;55.70;;;;;;;;;;745530;183;919159;-63
2021/11/15 00:19:41;;;;;;;113.75;56.10;;;;;;;;;;746252;187;919387;-62
2021/11/15 00:22:07;;;;;;;108.37;57.40;;;;;;;;;;768099;180;919039;-63
2021/11/15 00:24:33;;;;;;;111.00;54.00;;;;;;;;;;766457;179;919201;-63
2021/11/15 00:26:59;;;;;;;99.67;54.27;;;;;;;;;;773554;179;1358739;-64
2021/11/15 00:29:24;;;;;;;120.10;57.03;;;;;;;;;;769577;180;918280;-63
2021/11/15 00:31:50;;;;;;;119.37;55.97;;;;;;;;;;763707;180;917042;-63
2021/11/15 00:34:16;;;;;;;106.90;54.37;;;;;;;;;;765440;179;916065;-63
2021/11/15 00:36:42;;;;;;;104.17;54.33;;;;;;;;;;768555;179;917257;-64
2021/11/15 00:39:08;;;;;;;114.27;52.77;;;;;;;;;;763235;180;915365;-64
2021/11/15 00:41:34;;;;;;;100.23;54.47;;;;;;;;;;762585;180;916719;-63
2021/11/15 00:43:59;;;;;;;86.35;44.05;;;;;;;;;;770871;180;914535;-64
2021/11/15 00:46:25;;;;;;;108.17;51.40;;;;;;;;;;765881;179;915110;-64
2021/11/15 00:48:56;;;;;;;100.23;53.50;;;;;;;;;;762260;180;915977;-64
2021/11/15 00:51:22;;;;;;;107.53;49.47;;;;;;;;;;770461;180;915599;-64
2021/11/15 00:53:48;;;;;;;116.80;56.72;;;;;;;;;;773715;179;1018272;-63
2021/11/15 00:56:14;;;;;;;80.93;46.53;;;;;;;;;;766610;179;915129;-64
2021/11/15 00:58:40;;;;;;;102.87;49.23;;;;;;;;;;770407;180;928585;-65
2021/11/15 01:01:06;;;;;;;97.93;46.83;;;;;;;;;;769482;181;916313;-64
2021/11/15 01:03:32;;;;;;;87.67;45.10;;;;;;;;;;767015;180;916196;-64
2021/11/15 01:05:59;;;;;;;99.07;49.15;;;;;;;;;;767419;180;1242726;-64
2021/11/15 01:08:23;;;;;;;88.37;43.47;;;;;;;;;;762966;180;916306;-63
2021/11/15 01:10:52;;;;;;;79.00;44.23;;;;;;;;;;764956;181;916176;-64
2021/11/15 01:13:15;;;;;;;93.73;40.80;;;;;;;;;;762075;181;915794;-63
2021/11/15 01:15:41;;;;;;;89.47;45.00;;;;;;;;;;763549;181;919825;-64
2021/11/15 01:18:07;;;;;;;96.13;43.07;;;;;;;;;;768780;179;898232;-66
2021/11/15 01:20:33;;;;;;;94.50;46.63;;;;;;;;;;762003;180;919707;-65
2021/11/15 01:22:58;;;;;;;105.00;48.80;;;;;;;;;;764758;180;919657;-64
2021/11/15 01:25:24;;;;;;;75.63;42.27;;;;;;;;;;766180;180;918934;-64
2021/11/15 01:27:50;;;;;;;84.17;42.87;;;;;;;;;;768556;180;912632;-65
2021/11/15 01:30:16;;;;;;;90.07;40.40;;;;;;;;;;768541;179;919726;-64
2021/11/15 01:32:42;;;;;;;71.83;38.40;;;;;;;;;;770202;180;919425;-63
2021/11/15 01:35:08;;;;;;;80.80;40.53;;;;;;;;;;768046;178;919518;-62
2021/11/15 01:37:33;;;;;;;85.83;43.10;;;;;;;;;;765981;181;919419;-63
2021/11/15 01:39:59;;;;;;;82.43;41.27;;;;;;;;;;764006;180;920163;-64
2021/11/15 01:42:25;;;;;;;89.97;40.83;;;;;;;;;;760161;183;919558;-64
2021/11/15 01:44:51;;;;;;;91.03;43.30;;;;;;;;;;756258;183;919873;-64
2021/11/15 01:47:17;;;;;;;81.70;39.40;;;;;;;;;;767025;179;919180;-63
2021/11/15 01:49:43;;;;;;;93.03;43.80;;;;;;;;;;775005;180;1022394;-63
2021/11/15 01:52:09;;;;;;;93.85;41.90;;;;;;;;;;764642;180;919416;-63
2021/11/15 01:54:34;;;;;;;90.30;43.37;;;;;;;;;;747015;186;919284;-63
2021/11/15 01:57:00;;;;;;;90.23;46.90;;;;;;;;;;764153;182;918949;-64
2021/11/15 01:59:26;;;;;;;99.97;45.53;;;;;;;;;;762650;180;919232;-63
2021/11/15 02:01:52;;;;;;;90.40;43.40;;;;;;;;;;765537;180;919371;-64
2021/11/15 02:04:18;;;;;;;92.27;43.80;;;;;;;;;;766466;180;921369;-64
2021/11/15 02:06:44;;;;;;;84.87;43.03;;;;;;;;;;768837;179;919569;-64
2021/11/15 02:09:09;;;;;;;90.37;46.00;;;;;;;;;;769082;180;815962;-66
2021/11/15 02:11:35;;;;;;;88.22;42.00;;;;;;;;;;766360;180;990847;-64
2021/11/15 02:14:01;;;;;;;98.40;40.33;;;;;;;;;;769482;180;918911;-64
2021/11/15 02:16:28;;;;;;;88.63;47.37;;;;;;;;;;764538;180;918352;-63
2021/11/15 02:18:53;;;;;;;107.20;48.87;;;;;;;;;;771698;180;919533;-64
2021/11/15 02:21:19;;;;;;;89.23;45.37;;;;;;;;;;763705;181;918593;-65
2021/11/15 02:23:45;;;;;;;98.80;49.57;;;;;;;;;;747663;182;918674;-64
2021/11/15 02:26:10;;;;;;;108.13;48.80;;;;;;;;;;742289;187;932737;-66
2021/11/15 02:28:36;;;;;;;105.17;50.30;;;;;;;;;;749280;184;1737495;-62
2021/11/15 02:31:02;;;;;;;113.73;48.93;;;;;;;;;;766597;180;919518;-63
2021/11/15 02:33:30;;;;;;;89.13;42.63;;;;;;;;;;761901;181;918618;-64
2021/11/15 02:35:54;;;;;;;92.53;43.17;;;;;;;;;;772736;179;941452;-63
2021/11/15 02:38:20;;;;;;;98.97;49.03;;;;;;;;;;781374;180;616239;-64
2021/11/15 02:40:45;;;;;;;109.10;50.50;;;;;;;;;;767759;180;919207;-63
2021/11/15 02:43:11;;;;;;;95.70;44.37;;;;;;;;;;763930;180;919646;-64
2021/11/15 02:45:37;;;;;;;120.30;53.63;;;;;;;;;;761576;180;917655;-65
2021/11/15 02:48:03;;;;;;;99.37;40.17;;;;;;;;;;759480;179;993794;-65
2021/11/15 02:50:29;;;;;;;115.85;54.30;;;;;;;;;;752238;184;1022181;-65
2021/11/15 02:52:55;;;;;;;112.73;46.93;;;;;;;;;;743738;186;911269;-64
2021/11/15 02:55:21;;;;;;;138.17;55.33;;;;;;;;;;752440;184;918360;-64
2021/11/15 02:57:47;;;;;;;130.17;61.13;;;;;;;;;;749898;183;911076;-65
2021/11/15 03:00:15;;;;;;;134.43;56.40;;;;;;;;;;765113;179;919736;-64
2021/11/15 03:02:40;;;;;;;141.47;59.87;;;;;;;;;;767010;179;918549;-64
2021/11/15 03:05:06;;;;;;;145.97;63.03;;;;;;;;;;773086;179;920076;-65
2021/11/15 03:07:32;;;;;;;147.47;61.10;;;;;;;;;;774044;179;919158;-64
2021/11/15 03:09:58;;;;;;;154.00;64.03;;;;;;;;;;777026;180;919011;-64
2021/11/15 03:12:30;;;;;;;140.10;66.30;;;;;;;;;;755095;182;919264;-64
2021/11/15 03:14:56;;;;;;;141.50;62.80;;;;;;;;;;770074;180;918589;-63
2021/11/15 03:17:21;;;;;;;155.30;63.60;;;;;;;;;;765156;180;919508;-64
2021/11/15 03:19:47;;;;;;;155.63;60.80;;;;;;;;;;775349;180;921087;-63
2021/11/15 03:22:13;;;;;;;150.53;65.37;;;;;;;;;;763773;180;919864;-63
2021/11/15 03:24:41;;;;;;;159.20;62.43;;;;;;;;;;767302;180;919833;-64
2021/11/15 03:27:05;;;;;;;141.57;62.43;;;;;;;;;;769634;180;918325;-63
2021/11/15 03:29:31;;;;;;;160.07;58.77;;;;;;;;;;760463;181;921376;-64
2021/11/15 03:31:57;;;;;;;159.50;58.92;;;;;;;;;;772623;180;947704;-65
2021/11/15 03:34:23;;;;;;;173.30;72.57;;;;;;;;;;774847;179;918540;-64
2021/11/15 03:36:48;;;;;;;183.90;71.50;;;;;;;;;;770956;180;919181;-64
2021/11/15 03:39:16;;;;;;;164.00;65.63;;;;;;;;;;769092;179;1025300;-63
2021/11/15 03:41:41;;;;;;;164.37;65.10;;;;;;;;;;767958;181;1022257;-66
2021/11/15 03:44:07;;;;;;;178.10;70.83;;;;;;;;;;771075;181;915022;-64
2021/11/15 03:46:33;;;;;;;170.27;65.87;;;;;;;;;;764028;181;919710;-64
2021/11/15 03:48:58;;;;;;;176.27;70.67;;;;;;;;;;758293;180;919365;-64
2021/11/15 03:51:24;;;;;;;207.52;76.82;;;;;;;;;;776901;180;1022386;-64
2021/11/15 03:53:50;;;;;;;130.73;50.57;;;;;;;;;;768883;180;919544;-66
2021/11/15 03:56:16;;;;;;;193.17;71.60;;;;;;;;;;763927;180;919568;-65
2021/11/15 03:58:42;;;;;;;164.48;59.72;;;;;;;;;;780441;179;919556;-65
2021/11/15 04:01:08;;;;;;;161.60;59.67;;;;;;;;;;766096;179;918818;-65
2021/11/15 04:03:34;;;;;;;196.60;72.67;;;;;;;;;;758104;180;1281948;-65
2021/11/15 04:06:03;;;;;;;192.98;71.80;;;;;;;;;;763669;179;919830;-64
2021/11/15 04:08:28;;;;;;;179.20;73.37;;;;;;;;;;757688;183;919189;-64
2021/11/15 04:10:54;;;;;;;171.57;64.77;;;;;;;;;;759601;180;919557;-63
2021/11/15 04:13:20;;;;;;;207.23;79.93;;;;;;;;;;761796;180;919584;-65
2021/11/15 04:15:45;;;;;;;170.07;72.20;;;;;;;;;;767216;180;918977;-66
2021/11/15 04:18:11;;;;;;;185.97;72.60;;;;;;;;;;764274;180;922783;-65
2021/11/15 04:20:37;;;;;;;185.67;70.40;;;;;;;;;;767089;180;918755;-65
2021/11/15 04:23:03;;;;;;;194.68;77.00;;;;;;;;;;770743;180;919740;-65
2021/11/15 04:25:29;;;;;;;211.77;81.77;;;;;;;;;;767196;180;918829;-65
2021/11/15 04:27:55;;;;;;;184.17;77.83;;;;;;;;;;763496;180;919962;-66
2021/11/15 04:30:21;;;;;;;206.07;77.60;;;;;;;;;;762300;180;919592;-66
2021/11/15 04:32:46;;;;;;;174.37;70.37;;;;;;;;;;754004;184;919020;-65
2021/11/15 04:35:12;;;;;;;202.90;89.30;;;;;;;;;;767375;180;925530;-65
2021/11/15 04:37:38;;;;;;;220.13;97.53;;;;;;;;;;760705;181;920566;-65
2021/11/15 04:40:05;;;;;;;172.07;72.27;;;;;;;;;;772203;179;917631;-65
2021/11/15 04:42:30;;;;;;;198.93;78.07;;;;;;;;;;770306;180;916581;-65
2021/11/15 04:44:56;;;;;;;214.97;84.33;;;;;;;;;;768547;180;918483;-66
2021/11/15 04:47:22;;;;;;;205.30;79.17;;;;;;;;;;768264;181;812393;-65
2021/11/15 04:49:48;;;;;;;203.10;68.87;;;;;;;;;;761043;181;919511;-64
2021/11/15 04:52:14;;;;;;;182.05;68.55;;;;;;;;;;759442;181;920199;-65
2021/11/15 04:54:40;;;;;;;180.03;66.47;;;;;;;;;;769653;180;1021681;-65
2021/11/15 04:57:06;;;;;;;190.93;74.77;;;;;;;;;;772908;180;918778;-63
2021/11/15 04:59:31;;;;;;;203.67;76.47;;;;;;;;;;761947;181;919467;-65
2021/11/15 05:01:57;;;;;;;205.13;67.83;;;;;;;;;;764173;180;919120;-65
2021/11/15 05:04:23;;;;;;;197.53;72.23;;;;;;;;;;770503;180;638802;-67
2021/11/15 05:06:49;;;;;;;186.40;64.43;;;;;;;;;;755150;183;631294;-65
2021/11/15 05:09:16;;;;;;;192.10;71.67;;;;;;;;;;756845;183;631892;-65
2021/11/15 05:11:41;;;;;;;208.90;77.80;;;;;;;;;;761646;183;630302;-65
2021/11/15 05:14:06;;;;;;;217.67;72.40;;;;;;;;;;754740;183;919289;-65
2021/11/15 05:16:33;;;;;;;233.97;79.10;;;;;;;;;;746198;183;917373;-65
2021/11/15 05:18:59;;;;;;;211.90;72.97;;;;;;;;;;761356;184;853897;-65
2021/11/15 05:21:24;;;;;;;196.97;74.90;;;;;;;;;;776323;179;613946;-64
2021/11/15 05:23:52;;;;;;;197.13;73.00;;;;;;;;;;768214;179;919216;-65
2021/11/15 05:26:16;;;;;;;212.50;72.72;;;;;;;;;;764652;180;919400;-65
2021/11/15 05:28:42;;;;;;;209.67;76.20;;;;;;;;;;774825;180;918912;-64
2021/11/15 05:31:08;;;;;;;222.57;75.43;;;;;;;;;;770358;180;918634;-66
2021/11/15 05:33:33;;;;;;;192.20;66.47;;;;;;;;;;766191;180;919207;-64
2021/11/15 05:35:59;;;;;;;219.27;80.63;;;;;;;;;;769811;180;918524;-65
2021/11/15 05:38:25;;;;;;;193.07;74.03;;;;;;;;;;765347;180;918557;-65
2021/11/15 05:40:51;;;;;;;182.13;70.57;;;;;;;;;;762811;180;919511;-65
2021/11/15 05:43:17;;;;;;;207.73;70.90;;;;;;;;;;767217;180;919377;-65
2021/11/15 05:45:43;;;;;;;218.90;74.50;;;;;;;;;;756697;180;1439529;-68
2021/11/15 05:48:08;;;;;;;222.17;83.23;;;;;;;;;;765792;180;918842;-64
2021/11/15 05:50:34;;;;;;;213.07;76.57;;;;;;;;;;771968;179;625229;-66
2021/11/15 05:53:00;;;;;;;191.40;75.77;;;;;;;;;;773298;180;619300;-65
2021/11/15 05:55:26;;;;;;;218.80;77.67;;;;;;;;;;755836;181;622657;-64
2021/11/15 05:57:52;;;;;;;232.43;75.60;;;;;;;;;;752462;183;920050;-66
2021/11/15 06:00:18;;;;;;;211.03;74.03;;;;;;;;;;756441;183;919652;-64
2021/11/15 06:02:44;;;;;;;198.40;68.37;;;;;;;;;;765235;182;918750;-65
2021/11/15 06:05:09;;;;;;;208.57;68.70;;;;;;;;;;764638;180;919327;-64
2021/11/15 06:07:35;;;;;;;208.13;70.03;;;;;;;;;;773416;181;919305;-65
2021/11/15 06:10:01;;;;;;;215.60;73.00;;;;;;;;;;766201;181;919015;-66
2021/11/15 06:12:27;;;;;;;212.67;75.33;;;;;;;;;;766459;180;919316;-64
2021/11/15 06:14:53;;;;;;;195.10;70.03;;;;;;;;;;765768;180;918386;-65
2021/11/15 06:17:19;;;;;;;188.47;72.00;;;;;;;;;;759767;183;918797;-65
2021/11/15 06:19:44;;;;;;;176.10;62.80;;;;;;;;;;761830;181;919346;-63
2021/11/15 06:22:10;;;;;;;194.03;70.57;;;;;;;;;;765668;179;919632;-68
2021/11/15 06:24:36;;;;;;;167.73;53.97;;;;;;;;;;773096;181;919850;-64
2021/11/15 06:27:02;;;;;;;188.70;67.25;;;;;;;;;;768850;179;921849;-64
2021/11/15 06:29:28;;;;;;;196.50;68.90;;;;;;;;;;766568;179;919491;-64
2021/11/15 06:31:54;;;;;;;196.23;61.77;;;;;;;;;;770684;180;919937;-65
2021/11/15 06:34:20;;;;;;;212.27;67.23;;;;;;;;;;768812;179;919306;-64
2021/11/15 06:36:46;;;;;;;218.33;64.40;;;;;;;;;;764935;180;919607;-64
2021/11/15 06:39:12;;;;;;;207.75;66.22;;;;;;;;;;770226;179;921422;-63
2021/11/15 06:41:38;;;;;;;227.30;67.73;;;;;;;;;;770151;180;914311;-65
2021/11/15 06:44:05;;;;;;;231.90;75.73;;;;;;;;;;757683;183;920423;-65
2021/11/15 06:46:30;;;;;;;191.13;65.30;;;;;;;;;;768899;180;919094;-64
2021/11/15 06:48:56;;;;;;;225.03;68.33;;;;;;;;;;776726;179;918902;-65
2021/11/15 06:51:22;;;;;;;224.63;75.97;;;;;;;;;;761255;181;919299;-64
2021/11/15 06:53:48;;;;;;;207.02;78.72;;;;;;;;;;757506;180;919384;-64
2021/11/15 06:56:14;;;;;;;222.80;78.17;;;;;;;;;;765483;180;920118;-65
2021/11/15 06:58:40;;;;;;;225.07;71.00;;;;;;;;;;750707;183;1227667;-64
2021/11/15 07:01:06;;;;;;;231.98;67.90;;;;;;;;;;754062;182;918615;-65
2021/11/15 07:03:32;;;;;;;224.20;73.57;;;;;;;;;;765457;181;1020669;-66
2021/11/15 07:05:57;;;;;;;230.20;69.07;;;;;;;;;;763836;180;919568;-65
2021/11/15 07:08:23;;;;;;;233.83;73.90;;;;;;;;;;763863;181;919069;-65
2021/11/15 07:10:49;;;;;;;255.10;68.40;;;;;;;;;;764903;180;919411;-64
2021/11/15 07:13:15;;;;;;;227.30;68.20;;;;;;;;;;766112;181;919462;-64
2021/11/15 07:15:41;;;;;;;208.90;66.40;;;;;;;;;;761466;181;920367;-66
2021/11/15 07:18:07;;;;;;;192.00;60.93;;;;;;;;;;764330;181;924581;-64
2021/11/15 07:20:32;;;;;;;228.27;64.37;;;;;;;;;;770275;180;918168;-63
2021/11/15 07:22:58;;;;;;;190.43;71.00;;;;;;;;;;766460;180;919608;-64
2021/11/15 07:25:24;;;;;;;202.70;67.57;;;;;;;;;;765758;180;923766;-64
2021/11/15 07:27:50;;;;;;;200.13;59.03;;;;;;;;;;770947;180;920219;-65
2021/11/15 07:30:16;;;;;;;248.07;68.97;;;;;;;;;;752707;182;919748;-65
2021/11/15 07:32:42;;;;;;;218.07;65.60;;;;;;;;;;741468;186;1027039;-65
2021/11/15 07:35:07;;;;;;;192.57;59.50;;;;;;;;;;758749;182;918761;-64
2021/11/15 07:37:34;;;;;;;214.57;59.83;;;;;;;;;;772299;180;915869;-64
2021/11/15 07:39:59;;;;;;;208.90;61.67;;;;;;;;;;763032;180;915150;-65
2021/11/15 07:42:25;;;;;;;224.33;71.03;;;;;;;;;;766033;180;919513;-64
2021/11/15 07:44:51;;;;;;;170.13;53.47;;;;;;;;;;776010;180;920220;-65
2021/11/15 07:47:17;;;;;;;207.68;70.15;;;;;;;;;;765418;180;919363;-65
2021/11/15 07:49:42;;;;;;;251.20;81.00;;;;;;;;;;766402;179;919097;-65
2021/11/15 07:52:08;;;;;;;250.57;79.57;;;;;;;;;;769612;180;919145;-65
2021/11/15 07:54:34;;;;;;;232.73;75.93;;;;;;;;;;767812;180;919337;-65
2021/11/15 07:57:00;;;;;;;238.83;67.87;;;;;;;;;;766176;180;918463;-64
2021/11/15 07:59:26;;;;;;;212.63;66.37;;;;;;;;;;767490;180;919607;-63
2021/11/15 08:01:52;;;;;;;233.07;65.90;;;;;;;;;;748475;184;928616;-65
2021/11/15 08:04:18;;;;;;;183.73;53.57;;;;;;;;;;751103;183;920344;-65
2021/11/15 08:06:44;;;;;;;208.57;64.03;;;;;;;;;;765017;180;999096;-64
2021/11/15 08:09:09;;;;;;;234.67;68.67;;;;;;;;;;771125;181;919036;-64
2021/11/15 08:11:35;;;;;;;241.27;72.78;;;;;;;;;;771068;180;1020962;-64
2021/11/15 08:14:01;;;;;;;224.20;68.17;;;;;;;;;;765531;180;919990;-65
2021/11/15 08:16:27;;;;;;;220.63;69.50;;;;;;;;;;768846;180;918474;-64
2021/11/15 08:18:53;;;;;;;221.73;65.20;;;;;;;;;;766700;181;919092;-64
2021/11/15 08:21:19;;;;;;;222.60;64.33;;;;;;;;;;760958;180;919223;-64
2021/11/15 08:23:47;;;;;;;197.17;61.70;;;;;;;;;;761913;181;918045;-64
2021/11/15 08:26:27;;;;;;;240.57;62.90;;;;;;;;;;762026;181;918761;-65
2021/11/15 08:28:52;;;;;;;200.40;62.80;;;;;;;;;;767580;180;918817;-63
2021/11/15 08:31:18;;;;;;;205.57;60.63;;;;;;;;;;762780;181;924816;-66
2021/11/15 08:33:44;;;;;;;197.37;62.33;;;;;;;;;;751449;182;918586;-65
2021/11/15 08:36:10;;;;;;;195.00;62.50;;;;;;;;;;735670;188;918119;-65
2021/11/15 08:38:40;;;;;;;164.63;57.10;;;;;;;;;;754089;182;920273;-65
2021/11/15 08:41:05;;;;;;;196.37;63.53;;;;;;;;;;766063;180;919059;-65
2021/11/15 08:43:31;;;;;;;208.50;62.90;;;;;;;;;;771769;180;1024902;-63
2021/11/15 08:45:57;;;;;;;190.87;60.33;;;;;;;;;;763891;180;919345;-64
2021/11/15 08:48:23;;;;;;;193.83;54.20;;;;;;;;;;732293;190;919693;-65
2021/11/15 08:50:49;;;;;;;255.50;72.07;;;;;;;;;;744366;188;918945;-65
2021/11/15 08:53:15;;;;;;;200.83;68.47;;;;;;;;;;749203;183;919406;-64
2021/11/15 08:55:41;;;;;;;236.17;74.67;;;;;;;;;;766739;180;1021390;-65
2021/11/15 08:58:06;;;;;;;229.17;69.67;;;;;;;;;;771359;180;955808;-63
2021/11/15 09:00:32;;;;;;;221.98;76.37;;;;;;;;;;774815;180;918574;-64
2021/11/15 09:02:58;;;;;;;174.20;59.60;;;;;;;;;;768694;181;919135;-65
2021/11/15 09:05:24;;;;;;;197.07;69.93;;;;;;;;;;765031;181;919378;-64
2021/11/15 09:07:50;;;;;;;197.83;62.50;;;;;;;;;;770004;180;919877;-65
2021/11/15 09:10:16;;;;;;;192.70;60.73;;;;;;;;;;770340;180;918556;-65
2021/11/15 09:12:43;;;;;;;169.80;58.90;;;;;;;;;;769537;180;919790;-63
2021/11/15 09:15:08;;;;;;;217.37;67.77;;;;;;;;;;771763;180;918690;-64
2021/11/15 09:17:34;;;;;;;193.30;64.67;;;;;;;;;;770328;180;919313;-63
2021/11/15 09:20:02;;;;;;;214.50;76.73;;;;;;;;;;769086;180;918605;-64
2021/11/15 09:22:26;;;;;;;211.07;67.90;;;;;;;;;;766197;180;919421;-63
2021/11/15 09:24:52;;;;;;;153.13;56.83;;;;;;;;;;772202;180;919140;-65
2021/11/15 09:27:18;;;;;;;179.70;62.20;;;;;;;;;;766593;180;919123;-64
2021/11/15 09:29:44;;;;;;;168.93;59.70;;;;;;;;;;766107;180;941189;-64
2021/11/15 09:32:09;;;;;;;158.50;55.63;;;;;;;;;;774639;180;920242;-66
2021/11/15 09:34:39;;;;;;;156.37;55.17;;;;;;;;;;766573;181;919473;-66
2021/11/15 09:37:02;;;;;;;207.67;70.00;;;;;;;;;;764285;180;925623;-64
2021/11/15 09:39:28;;;;;;;154.60;59.90;;;;;;;;;;771785;180;918507;-67
2021/11/15 09:41:55;;;;;;;147.53;54.03;;;;;;;;;;767509;180;918524;-65
2021/11/15 09:44:21;;;;;;;164.50;57.17;;;;;;;;;;762073;180;918279;-63
2021/11/15 09:46:47;;;;;;;194.23;69.13;;;;;;;;;;767222;180;916360;-63
2021/11/15 09:49:13;;;;;;;140.40;55.20;;;;;;;;;;770494;180;970356;-63
2021/11/15 09:51:39;;;;;;;144.03;53.50;;;;;;;;;;765696;181;1017516;-63
2021/11/15 09:54:05;;;;;;;154.37;56.80;;;;;;;;;;766203;179;915864;-62
2021/11/15 09:56:30;;;;;;;141.30;57.33;;;;;;;;;;772798;179;920092;-62
2021/11/15 09:58:56;;;;;;;149.87;55.10;;;;;;;;;;766425;180;913634;-62
2021/11/15 10:01:22;;;;;;;138.95;53.65;;;;;;;;;;766572;180;919204;-62
2021/11/15 10:03:48;;;;;;;101.37;39.90;;;;;;;;;;772363;180;918406;-63
2021/11/15 10:06:14;;;;;;;153.00;56.17;;;;;;;;;;767627;180;1123093;-62
2021/11/15 10:08:41;;;;;;;129.85;57.58;;;;;;;;;;769445;180;1021043;-62
2021/11/15 10:11:07;;;;;;;131.97;50.00;;;;;;;;;;766095;180;919475;-62
2021/11/15 10:13:34;;;;;;;104.30;44.03;;;;;;;;;;773575;180;917614;-63
2021/11/15 10:15:59;;;;;;;131.57;50.00;;;;;;;;;;770386;180;918499;-63
2021/11/15 10:18:32;;;;;;;134.63;49.57;;;;;;;;;;765377;178;925498;-63
2021/11/15 10:20:57;;;;;;;133.40;49.20;;;;;;;;;;773675;180;915807;-62
2021/11/15 10:23:26;;;;;;;122.97;49.17;;;;;;;;;;765163;180;919124;-62
2021/11/15 10:25:57;;;;;;;115.97;49.60;;;;;;;;;;766347;180;920423;-62
2021/11/15 10:28:18;;;;;;;123.37;48.57;;;;;;;;;;773074;180;918675;-63
2021/11/15 10:30:44;;;;;;;117.70;49.50;;;;;;;;;;771173;181;710550;-63
2021/11/15 10:33:11;;;;;;;128.83;56.43;;;;;;;;;;767658;180;1724061;-62
2021/11/15 10:35:38;;;;;;;111.17;48.60;;;;;;;;;;769905;180;914459;-62
2021/11/15 10:38:04;;;;;;;107.07;46.57;;;;;;;;;;772246;180;916256;-63
2021/11/15 10:40:31;;;;;;;123.53;48.80;;;;;;;;;;770034;179;919333;-63
2021/11/15 10:42:56;;;;;;;122.93;46.70;;;;;;;;;;774393;180;919311;-62
2021/11/15 10:45:23;;;;;;;120.53;45.77;;;;;;;;;;771499;179;906062;-63
2021/11/15 10:47:48;;;;;;;112.03;47.03;;;;;;;;;;758109;184;917921;-64
2021/11/15 10:50:21;;;;;;;117.55;49.22;;;;;;;;;;762924;181;919362;-63
2021/11/15 10:52:43;;;;;;;118.00;46.85;;;;;;;;;;770525;181;919581;-63
2021/11/15 10:55:09;;;;;;;109.37;45.27;;;;;;;;;;773568;180;918167;-63
2021/11/15 10:57:38;;;;;;;111.43;45.30;;;;;;;;;;763987;180;918500;-63
2021/11/15 11:00:20;;;;;;;145.23;54.37;;;;;;;;;;769493;180;919061;-64
2021/11/15 11:02:46;;;;;;;102.27;50.30;;;;;;;;;;770336;181;919080;-62
2021/11/15 11:05:17;;;;;;;97.70;45.30;;;;;;;;;;763743;180;919026;-62
2021/11/15 11:07:43;;;;;;;88.00;39.37;;;;;;;;;;766781;181;945373;-63
2021/11/15 11:10:09;;;;;;;96.87;41.87;;;;;;;;;;767259;181;923370;-62
2021/11/15 11:12:36;;;;;;;95.78;45.80;;;;;;;;;;766667;181;919610;-62
2021/11/15 11:15:06;;;;;;;93.43;45.60;;;;;;;;;;774534;180;919498;-62
2021/11/15 11:17:32;;;;;;;99.83;44.00;;;;;;;;;;774318;180;916952;-62
2021/11/15 11:20:05;;;;;;;104.00;42.50;;;;;;;;;;763872;180;919336;-63
2021/11/15 11:22:49;;;;;;;98.73;42.50;;;;;;;;;;768744;180;918634;-62
2021/11/15 11:25:09;;;;;;;99.93;43.23;;;;;;;;;;768777;180;920942;-62
2021/11/15 11:27:28;;;;;;;99.20;41.93;;;;;;;;;;757914;183;919738;-64
2021/11/15 11:29:54;;;;;;;100.57;42.90;;;;;;;;;;758220;183;919235;-63
2021/11/15 11:32:21;;;;;;;111.20;47.30;;;;;;;;;;754229;183;919278;-63
2021/11/15 11:34:48;;;;;;;122.03;54.40;;;;;;;;;;763584;183;922190;-63
2021/11/15 11:37:13;;;;;;;71.63;35.77;;;;;;;;;;750941;183;918862;-62
2021/11/15 11:39:38;;;;;;;109.90;46.73;;;;;;;;;;748347;186;917050;-63
2021/11/15 11:42:04;;;;;;;115.60;45.67;;;;;;;;;;750152;186;976993;-64
2021/11/15 11:44:30;;;;;;;112.03;47.40;;;;;;;;;;757225;182;915419;-63
2021/11/15 11:46:56;;;;;;;99.20;45.60;;;;;;;;;;757792;181;920973;-63
2021/11/15 11:49:24;;;;;;;102.00;43.43;;;;;;;;;;759931;183;920372;-64
2021/11/15 11:51:48;;;;;;;88.70;40.10;;;;;;;;;;754604;184;918697;-65
2021/11/15 11:54:14;;;;;;;85.70;36.10;;;;;;;;;;760125;182;919688;-63
2021/11/15 11:56:40;;;;;;;91.17;39.07;;;;;;;;;;770956;180;919125;-63
2021/11/15 11:59:08;;;;;;;92.83;42.60;;;;;;;;;;775815;180;919794;-63
2021/11/15 12:01:35;;;;;;;95.20;43.77;;;;;;;;;;768634;180;918983;-64
2021/11/15 12:04:05;;;;;;;84.97;41.83;;;;;;;;;;768498;177;920656;-63
2021/11/15 12:06:31;;;;;;;76.33;37.90;;;;;;;;;;768017;180;919999;-62
2021/11/15 12:08:57;;;;;;;89.40;40.60;;;;;;;;;;771196;180;918244;-63
2021/11/15 12:11:23;;;;;;;179.57;66.17;;;;;;;;;;766607;180;919259;-63
2021/11/15 12:13:49;;;;;;;85.33;39.67;;;;;;;;;;767503;180;934573;-63
2021/11/15 12:16:15;;;;;;;81.70;39.67;;;;;;;;;;767967;180;918792;-64
2021/11/15 12:18:40;;;;;;;87.17;42.03;;;;;;;;;;762796;180;918549;-64
2021/11/15 12:21:10;;;;;;;91.17;39.60;;;;;;;;;;766239;179;919103;-63
2021/11/15 12:23:35;;;;;;;78.60;34.80;;;;;;;;;;774071;180;919292;-63
2021/11/15 12:26:05;;;;;;;92.63;37.70;;;;;;;;;;771482;179;919451;-64
2021/11/15 12:28:31;;;;;;;77.05;35.58;;;;;;;;;;769980;180;918757;-65
2021/11/15 12:30:58;;;;;;;83.97;36.80;;;;;;;;;;769839;179;918360;-63
2021/11/15 12:33:23;;;;;;;95.12;45.50;;;;;;;;;;778055;179;919343;-64
2021/11/15 12:36:03;;;;;;;97.10;39.13;;;;;;;;;;769773;180;918381;-64
2021/11/15 12:38:29;;;;;;;95.57;40.20;;;;;;;;;;766209;179;918933;-66
2021/11/15 12:40:55;;;;;;;85.50;41.60;;;;;;;;;;772522;180;918699;-64
2021/11/15 12:43:21;;;;;;;92.90;44.87;;;;;;;;;;774637;180;919595;-64
2021/11/15 12:45:48;;;;;;;94.95;44.90;;;;;;;;;;770590;180;928238;-64
2021/11/15 12:48:19;;;;;;;126.73;55.80;;;;;;;;;;768786;179;918823;-64
2021/11/15 12:50:46;;;;;;;98.63;45.80;;;;;;;;;;765721;180;918554;-63
2021/11/15 12:53:12;;;;;;;84.10;40.73;;;;;;;;;;775351;180;1020063;-64
2021/11/15 12:55:42;;;;;;;76.57;38.67;;;;;;;;;;774214;180;928702;-64
2021/11/15 12:58:04;;;;;;;92.23;41.17;;;;;;;;;;773141;179;919503;-64
2021/11/15 13:00:29;;;;;;;84.87;37.43;;;;;;;;;;770527;181;919398;-64
2021/11/15 13:02:56;;;;;;;80.43;36.50;;;;;;;;;;773284;180;919028;-64
2021/11/15 13:05:22;;;;;;;96.00;47.00;;;;;;;;;;774890;179;919091;-64
2021/11/15 13:07:48;;;;;;;100.57;47.60;;;;;;;;;;772665;180;919482;-64
2021/11/15 13:10:16;;;;;;;96.53;42.37;;;;;;;;;;774628;180;919036;-64
2021/11/15 13:12:39;;;;;;;97.90;46.70;;;;;;;;;;769626;180;628037;-64
2021/11/15 13:15:06;;;;;;;88.00;41.50;;;;;;;;;;772604;181;628677;-64
2021/11/15 13:17:31;;;;;;;87.50;44.37;;;;;;;;;;774104;180;917295;-64
2021/11/15 13:20:02;;;;;;;94.57;44.83;;;;;;;;;;768780;180;935893;-64
2021/11/15 13:22:23;;;;;;;113.07;51.27;;;;;;;;;;773302;179;918989;-64
2021/11/15 13:24:49;;;;;;;105.93;49.47;;;;;;;;;;779601;180;918331;-65
2021/11/15 13:27:15;;;;;;;96.20;45.97;;;;;;;;;;767406;181;926916;-64
2021/11/15 13:29:41;;;;;;;114.53;44.60;;;;;;;;;;764267;181;919534;-64
2021/11/15 13:32:07;;;;;;;93.03;41.47;;;;;;;;;;776600;179;919294;-63
2021/11/15 13:34:33;;;;;;;98.43;44.97;;;;;;;;;;777813;179;1013630;-63
2021/11/15 13:36:58;;;;;;;89.93;42.50;;;;;;;;;;777305;179;919217;-64
2021/11/15 13:39:24;;;;;;;89.53;38.63;;;;;;;;;;771216;180;918877;-63
2021/11/15 13:41:50;;;;;;;92.67;47.63;;;;;;;;;;777104;180;919038;-63
2021/11/15 13:44:17;;;;;;;100.37;42.40;;;;;;;;;;764159;180;919224;-63
2021/11/15 13:46:42;;;;;;;97.88;45.70;;;;;;;;;;769029;180;919205;-65